Crystal Beach, Texas
Current Conditions -  °F | °C
As of 7:52 AM on Monday 24 Nov 2014 (Local Time) from KGLS Reporting Station
Clear Clear  
Wind Chill: 54°   Ceiling: Unl
Heat Index: 54°   Visibility: 10mi
Dew Point: 45°   Wind: 24mph
Humidity: 72%   Direction: 340°NNW
Pressure: 29.97"   Gusts: 29mph
Location:  29.4387°N, 94.6622°W
Report Text: KGLS 241352Z 34021G25KT 10SM CLR 12/07 A2997 RMK AO2 PK WND 35027/1307 SLP149 T01220072
Loading
Personal Weather Stations






























Interactive Weather Map New forecast layout! Learn more

10-Day Weather Forecast

Advertisements
Track Severe Weather on mobile